createdAt,value
2018-04-14T00:01:15.245Z,65.80
2018-04-14T00:03:42.764Z,65.30
2018-04-14T00:06:11.044Z,64.30
2018-04-14T00:08:39.354Z,62.90
2018-04-14T00:11:06.850Z,62.80
2018-04-14T00:13:34.378Z,62.40
2018-04-14T00:16:01.890Z,61.70
2018-04-14T00:18:30.192Z,60.10
2018-04-14T00:20:57.711Z,59.90
2018-04-14T00:23:25.210Z,59.30
2018-04-14T00:25:52.736Z,59.00
2018-04-14T00:28:20.993Z,58.20
2018-04-14T00:30:48.518Z,58.10
2018-04-14T00:33:16.018Z,57.70
2018-04-14T00:35:43.552Z,57.60
2018-04-14T00:38:11.053Z,57.50
2018-04-14T00:40:39.351Z,56.70
2018-04-14T00:43:06.844Z,56.60
2018-04-14T00:45:34.406Z,56.90
2018-04-14T00:48:01.899Z,56.80
2018-04-14T00:50:30.198Z,57.00
2018-04-14T00:53:03.659Z,56.90
2018-04-14T00:55:31.925Z,57.30
2018-04-14T00:57:59.464Z,57.30
2018-04-14T01:00:26.971Z,57.70
2018-04-14T01:02:54.486Z,57.80
2018-04-14T01:05:21.987Z,57.90
2018-04-14T01:07:49.505Z,57.80
2018-04-14T01:10:18.511Z,57.50
2018-04-14T01:12:46.790Z,56.80
2018-04-14T01:15:15.046Z,57.10
2018-04-14T01:17:42.572Z,57.10
2018-04-14T01:20:10.063Z,57.10
2018-04-14T01:22:37.560Z,57.10
2018-04-14T01:25:05.078Z,56.70
2018-04-14T01:27:32.586Z,57.30
2018-04-14T01:30:00.127Z,58.00
2018-04-14T01:32:28.434Z,58.10
2018-04-14T01:34:55.950Z,58.00
2018-04-14T01:37:23.511Z,58.10
2018-04-14T01:39:51.814Z,59.00
2018-04-14T01:42:19.318Z,59.00
2018-04-14T01:44:46.878Z,58.50
2018-04-14T01:47:14.388Z,58.50
2018-04-14T01:49:41.902Z,58.70
2018-04-14T01:52:09.401Z,59.40
2018-04-14T01:54:36.932Z,59.80
2018-04-14T01:57:05.197Z,59.40
2018-04-14T01:59:33.491Z,59.60
2018-04-14T02:02:01.022Z,59.60
2018-04-14T02:04:28.514Z,59.40
2018-04-14T02:06:56.057Z,58.60
2018-04-14T02:09:24.350Z,59.30
2018-04-14T02:11:51.853Z,58.60
2018-04-14T02:14:19.383Z,58.40
2018-04-14T02:16:46.888Z,57.90
2018-04-14T02:19:14.408Z,58.30
2018-04-14T02:21:41.895Z,58.50
2018-04-14T02:24:09.417Z,58.80
2018-04-14T02:26:36.935Z,58.50
2018-04-14T02:29:05.229Z,58.40
2018-04-14T02:31:32.730Z,58.40
2018-04-14T02:34:00.246Z,58.90
2018-04-14T02:36:27.803Z,59.00
2018-04-14T02:38:55.345Z,59.40
2018-04-14T02:41:22.871Z,59.60
2018-04-14T02:43:50.372Z,59.70
2018-04-14T02:46:17.891Z,60.20
2018-04-14T02:48:45.395Z,60.70
2018-04-14T02:51:12.920Z,60.70
2018-04-14T02:53:41.191Z,59.70
2018-04-14T02:56:09.491Z,59.90
2018-04-14T02:58:37.012Z,59.90
2018-04-14T03:01:04.532Z,60.40
2018-04-14T03:03:32.051Z,60.80
2018-04-14T03:05:59.591Z,60.70
2018-04-14T03:08:27.177Z,61.20
2018-04-14T03:10:54.710Z,61.60
2018-04-14T03:13:22.978Z,60.40
2018-04-14T03:15:50.491Z,60.20
2018-04-14T03:18:17.984Z,60.10
2018-04-14T03:20:45.504Z,60.70
2018-04-14T03:23:13.045Z,59.40
2018-04-14T03:25:40.542Z,58.90
2018-04-14T03:28:08.058Z,58.50
2018-04-14T03:30:35.551Z,58.00
2018-04-14T03:33:03.074Z,57.30
2018-04-14T03:35:30.575Z,56.90
2018-04-14T03:37:58.081Z,56.40
2018-04-14T03:40:25.574Z,56.20
2018-04-14T03:42:53.102Z,55.80
2018-04-14T03:45:20.606Z,55.50
2018-04-14T03:47:48.109Z,55.50
2018-04-14T03:50:15.665Z,56.20
2018-04-14T03:52:43.154Z,56.30
2018-04-14T03:55:10.677Z,55.90
2018-04-14T03:57:38.937Z,55.10
2018-04-14T04:00:07.221Z,55.00
2018-04-14T04:02:35.490Z,54.70
2018-04-14T04:05:03.776Z,54.50
2018-04-14T04:07:32.082Z,54.40
2018-04-14T04:09:59.607Z,54.40
2018-04-14T04:12:27.907Z,53.80
2018-04-14T04:14:55.423Z,53.70
2018-04-14T04:17:22.914Z,54.00
2018-04-14T04:20:02.386Z,53.90
2018-04-14T04:22:41.730Z,53.70
2018-04-14T04:28:09.130Z,53.30
2018-04-14T04:30:36.609Z,53.30
2018-04-14T04:33:04.130Z,53.50
2018-04-14T04:35:31.650Z,53.70
2018-04-14T04:37:59.146Z,53.70
2018-04-14T04:40:26.692Z,54.20
2018-04-14T04:42:54.182Z,54.00
2018-04-14T04:45:22.475Z,54.60
2018-04-14T04:47:49.994Z,54.50
2018-04-14T04:50:17.525Z,55.70
2018-04-14T04:52:45.047Z,55.30
2018-04-14T04:55:12.551Z,55.20
2018-04-14T04:57:40.066Z,55.20
2018-04-14T05:00:07.579Z,55.10
2018-04-14T05:02:35.113Z,55.00
2018-04-14T05:05:02.633Z,55.00
2018-04-14T05:07:30.196Z,54.90
2018-04-14T05:09:57.740Z,55.10
2018-04-14T05:12:26.007Z,55.60
2018-04-14T05:14:54.285Z,56.00
2018-04-14T05:17:22.546Z,56.50
2018-04-14T05:19:50.846Z,57.30
2018-04-14T05:22:19.137Z,57.50
2018-04-14T05:24:47.523Z,57.40
2018-04-14T05:27:15.050Z,57.90
2018-04-14T05:29:43.354Z,58.30
2018-04-14T05:32:10.896Z,58.20
2018-04-14T05:34:38.422Z,58.20
2018-04-14T05:37:05.960Z,57.80
2018-04-14T05:39:33.459Z,57.20
2018-04-14T05:42:01.769Z,56.50
2018-04-14T05:44:29.307Z,56.50
2018-04-14T05:46:56.807Z,56.10
2018-04-14T05:49:24.337Z,55.80
2018-04-14T05:51:51.854Z,56.50
2018-04-14T05:54:20.154Z,56.00
2018-04-14T05:56:47.659Z,56.00
2018-04-14T05:59:15.198Z,56.10
2018-04-14T06:01:42.703Z,55.70
2018-04-14T06:04:10.983Z,55.10
2018-04-14T06:06:39.538Z,55.50
2018-04-14T06:09:08.552Z,55.90
2018-04-14T06:11:36.863Z,56.70
2018-04-14T06:14:04.362Z,56.70
2018-04-14T06:16:31.866Z,57.00
2018-04-14T06:18:59.402Z,57.20
2018-04-14T06:21:27.662Z,57.70
2018-04-14T06:23:55.196Z,57.60
2018-04-14T06:26:22.688Z,57.70
2018-04-14T06:28:50.987Z,58.00
2018-04-14T06:31:18.486Z,57.90
2018-04-14T06:33:46.009Z,57.90
2018-04-14T06:36:13.525Z,58.20
2018-04-14T06:38:41.824Z,57.70
2018-04-14T06:41:10.097Z,57.70
2018-04-14T06:43:38.434Z,57.80
2018-04-14T06:46:05.984Z,57.80
2018-04-14T06:48:33.498Z,57.70
2018-04-14T06:51:01.018Z,58.00
2018-04-14T06:53:28.528Z,58.00
2018-04-14T06:55:56.088Z,57.80
2018-04-14T06:58:24.318Z,58.00
2018-04-14T07:00:52.600Z,58.30
2018-04-14T07:03:20.904Z,58.40
2018-04-14T07:05:48.422Z,58.20
2018-04-14T07:08:15.923Z,57.60
2018-04-14T07:10:43.448Z,57.40
2018-04-14T07:13:11.722Z,58.30
2018-04-14T07:15:39.998Z,59.30
2018-04-14T07:18:08.268Z,60.10
2018-04-14T07:20:35.823Z,60.10
2018-04-14T07:23:03.340Z,59.20
2018-04-14T07:25:30.875Z,59.40
2018-04-14T07:27:58.401Z,59.30
2018-04-14T07:30:26.663Z,58.50
2018-04-14T07:32:54.186Z,57.90
2018-04-14T07:35:21.710Z,58.00
2018-04-14T07:37:49.231Z,57.90
2018-04-14T07:40:16.742Z,58.30
2018-04-14T07:42:44.381Z,58.10
2018-04-14T07:45:12.646Z,57.90
2018-04-14T07:47:40.194Z,57.90
2018-04-14T07:50:07.709Z,58.00
2018-04-14T07:52:35.225Z,58.90
2018-04-14T07:55:02.737Z,58.30
2018-04-14T07:57:30.269Z,57.90
2018-04-14T07:59:57.770Z,58.00
2018-04-14T08:02:25.365Z,58.40
2018-04-14T08:04:53.134Z,58.30
2018-04-14T08:07:20.686Z,58.20
2018-04-14T08:09:48.230Z,58.00
2018-04-14T08:12:16.512Z,58.10
2018-04-14T08:14:44.776Z,58.50
2018-04-14T08:17:13.090Z,58.50
2018-04-14T08:19:40.640Z,58.50
2018-04-14T08:22:08.144Z,58.40
2018-04-14T08:24:35.682Z,57.20
2018-04-14T08:27:03.175Z,57.40
2018-04-14T08:29:30.717Z,57.90
2018-04-14T08:31:58.285Z,56.90
2018-04-14T08:34:26.599Z,56.80
2018-04-14T08:36:54.099Z,56.70
2018-04-14T08:39:21.628Z,56.90
2018-04-14T08:41:49.131Z,56.80
2018-04-14T08:44:16.667Z,56.80
2018-04-14T08:46:44.192Z,56.60
2018-04-14T08:49:11.717Z,58.10
2018-04-14T08:51:40.016Z,57.80
2018-04-14T08:54:07.526Z,57.80
2018-04-14T08:56:35.073Z,57.80
2018-04-14T08:59:02.594Z,57.80
2018-04-14T09:01:30.219Z,57.20
2018-04-14T09:03:58.507Z,58.00
2018-04-14T09:06:26.950Z,56.80
2018-04-14T09:08:54.455Z,56.80
2018-04-14T09:11:22.739Z,55.80
2018-04-14T09:13:50.258Z,55.80
2018-04-14T09:16:17.788Z,56.10
2018-04-14T09:18:45.551Z,55.20
2018-04-14T09:21:13.075Z,54.30
2018-04-14T09:23:40.637Z,53.50
2018-04-14T09:26:08.156Z,54.70
2018-04-14T09:28:35.670Z,54.60
2018-04-14T09:31:03.184Z,54.50
2018-04-14T09:33:31.498Z,53.50
2018-04-14T09:35:59.026Z,53.50
2018-04-14T09:38:27.467Z,53.00
2018-04-14T09:40:55.006Z,52.90
2018-04-14T09:43:22.542Z,52.80
2018-04-14T09:45:50.056Z,51.50
2018-04-14T09:48:17.582Z,50.20
2018-04-14T09:50:45.094Z,51.80
2018-04-14T09:53:12.810Z,52.20
2018-04-14T09:55:40.326Z,51.70
2018-04-14T09:58:08.619Z,50.30
2018-04-14T10:00:41.863Z,50.30
2018-04-14T10:03:15.206Z,50.90
2018-04-14T10:05:42.717Z,50.70
2018-04-14T10:08:10.345Z,50.60
2018-04-14T10:10:37.889Z,50.60
2018-04-14T10:13:05.390Z,49.30
2018-04-14T10:15:32.918Z,48.00
2018-04-14T10:18:00.489Z,48.10
2018-04-14T10:20:29.505Z,47.20
2018-04-14T10:22:57.033Z,47.10
2018-04-14T10:25:24.590Z,48.10
2018-04-14T10:27:52.091Z,48.40
2018-04-14T10:30:20.381Z,48.40
2018-04-14T10:32:47.903Z,48.40
2018-04-14T10:35:15.434Z,48.10
2018-04-14T10:37:43.049Z,47.90
2018-04-14T10:40:10.518Z,47.90
2018-04-14T10:42:38.047Z,46.40
2018-04-14T10:45:06.340Z,46.70
2018-04-14T10:47:34.643Z,46.70
2018-04-14T10:50:02.191Z,46.70
2018-04-14T10:52:29.864Z,46.00
2018-04-14T10:54:57.355Z,45.80
2018-04-14T10:57:24.952Z,46.00
2018-04-14T10:59:53.209Z,46.00
2018-04-14T11:02:21.501Z,46.60
2018-04-14T11:04:49.771Z,46.40
2018-04-14T11:07:18.042Z,47.10
2018-04-14T11:09:46.304Z,45.90
2018-04-14T11:12:13.823Z,45.80
2018-04-14T11:14:41.309Z,46.30
2018-04-14T11:17:09.606Z,46.00
2018-04-14T11:19:37.887Z,45.80
2018-04-14T11:22:05.411Z,45.80
2018-04-14T11:24:32.920Z,45.00
2018-04-14T11:27:00.432Z,45.60
2018-04-14T11:29:27.962Z,45.60
2018-04-14T11:31:55.483Z,45.30
2018-04-14T11:34:23.018Z,45.80
2018-04-14T11:36:50.531Z,45.50
2018-04-14T11:39:18.055Z,45.50
2018-04-14T11:41:46.332Z,46.10
2018-04-14T11:44:14.602Z,46.20
2018-04-14T11:46:42.897Z,46.40
2018-04-14T11:49:10.414Z,46.40
2018-04-14T11:51:37.945Z,46.30
2018-04-14T11:54:05.456Z,45.60
2018-04-14T11:56:33.805Z,45.60
2018-04-14T11:59:01.328Z,45.60
2018-04-14T12:01:28.870Z,45.60
2018-04-14T12:03:56.378Z,45.70
2018-04-14T12:06:23.957Z,45.30
2018-04-14T12:08:52.226Z,44.70
2018-04-14T12:11:20.509Z,45.20
2018-04-14T12:13:48.057Z,45.20
2018-04-14T12:16:16.352Z,44.40
2018-04-14T12:18:43.850Z,44.40
2018-04-14T12:21:11.389Z,43.90
2018-04-14T12:23:38.908Z,43.20
2018-04-14T12:26:07.207Z,42.90
2018-04-14T12:28:34.714Z,42.70
2018-04-14T12:31:02.242Z,42.20
2018-04-14T12:33:29.735Z,43.00
2018-04-14T12:35:57.240Z,43.00
2018-04-14T12:38:24.774Z,41.90
2018-04-14T12:40:52.301Z,42.60
2018-04-14T12:43:19.837Z,42.50
2018-04-14T12:45:47.346Z,41.50
2018-04-14T12:48:15.643Z,41.00
2018-04-14T12:50:43.166Z,41.00
2018-04-14T12:53:10.702Z,40.70
2018-04-14T12:55:38.230Z,39.90
2018-04-14T12:58:05.776Z,39.20
2018-04-14T13:00:33.276Z,38.20
2018-04-14T13:03:00.780Z,38.70
2018-04-14T13:05:29.058Z,38.60
2018-04-14T13:07:56.579Z,38.60
2018-04-14T13:10:24.104Z,39.20
2018-04-14T13:12:51.622Z,38.20
2018-04-14T13:15:19.918Z,38.10
2018-04-14T13:17:47.410Z,38.10
2018-04-14T13:20:20.746Z,37.40
2018-04-14T13:22:49.019Z,38.40
2018-04-14T13:25:17.321Z,37.80
2018-04-14T13:27:44.832Z,37.80
2018-04-14T13:30:12.374Z,38.20
2018-04-14T13:32:39.857Z,38.00
2018-04-14T13:35:07.389Z,37.30
2018-04-14T13:37:34.923Z,38.00
2018-04-14T13:40:02.474Z,37.10
2018-04-14T13:42:30.035Z,36.80
2018-04-14T13:44:57.558Z,36.80
2018-04-14T13:47:25.850Z,37.00
2018-04-14T13:49:53.361Z,36.90
2018-04-14T13:52:20.891Z,36.70
2018-04-14T13:54:48.414Z,36.80
2018-04-14T13:57:15.942Z,35.40
2018-04-14T13:59:43.467Z,36.30
2018-04-14T14:02:11.014Z,36.70
2018-04-14T14:04:38.509Z,36.70
2018-04-14T14:07:06.013Z,36.30
2018-04-14T14:09:33.530Z,36.40
2018-04-14T14:12:01.064Z,37.60
2018-04-14T14:14:28.642Z,38.00
2018-04-14T14:16:56.140Z,38.20
2018-04-14T14:19:23.680Z,38.10
2018-04-14T14:21:51.940Z,37.50
2018-04-14T14:24:19.480Z,37.40
2018-04-14T14:26:46.988Z,35.90
2018-04-14T14:29:14.539Z,35.70
2018-04-14T14:31:42.842Z,36.90
2018-04-14T14:34:10.353Z,36.80
2018-04-14T14:36:37.974Z,36.60
2018-04-14T14:39:05.501Z,36.60
2018-04-14T14:41:33.052Z,35.70
2018-04-14T14:44:01.319Z,36.90
2018-04-14T14:46:29.617Z,36.80
2018-04-14T14:48:57.184Z,36.70
2018-04-14T14:51:24.715Z,36.10
2018-04-14T14:53:52.990Z,36.30
2018-04-14T14:56:21.341Z,35.40
2018-04-14T14:58:48.853Z,35.40
2018-04-14T15:01:16.672Z,35.30
2018-04-14T15:03:44.207Z,36.00
2018-04-14T15:06:11.715Z,35.50
2018-04-14T15:08:39.231Z,35.20
2018-04-14T15:11:06.733Z,35.30
2018-04-14T15:13:34.279Z,35.10
2018-04-14T15:16:03.422Z,35.40
2018-04-14T15:18:30.953Z,35.40
2018-04-14T15:20:58.459Z,36.40
2018-04-14T15:23:26.030Z,36.80
2018-04-14T15:25:53.536Z,37.10
2018-04-14T15:28:21.119Z,37.10
2018-04-14T15:30:48.643Z,36.70
2018-04-14T15:33:16.172Z,36.00
2018-04-14T15:35:44.457Z,37.50
2018-04-14T15:38:12.764Z,37.50
2018-04-14T15:40:40.297Z,37.50
2018-04-14T15:43:07.827Z,37.30
2018-04-14T15:45:35.335Z,37.40
2018-04-14T15:48:02.898Z,36.60
2018-04-14T15:50:30.414Z,37.90
2018-04-14T15:52:59.240Z,37.10
2018-04-14T15:55:27.047Z,37.60
2018-04-14T15:57:54.732Z,36.80
2018-04-14T16:00:22.383Z,37.80
2018-04-14T16:02:49.908Z,38.20
2018-04-14T16:05:17.443Z,37.80
2018-04-14T16:07:44.954Z,37.80
2018-04-14T16:10:13.394Z,38.70
2018-04-14T16:12:40.971Z,38.60
2018-04-14T16:15:08.490Z,38.40
2018-04-14T16:17:36.015Z,38.40
2018-04-14T16:20:04.285Z,38.80
2018-04-14T16:22:32.592Z,39.40
2018-04-14T16:25:00.260Z,39.40
2018-04-14T16:27:27.910Z,39.60
2018-04-14T16:29:55.424Z,40.00
2018-04-14T16:32:22.959Z,39.00
2018-04-14T16:34:50.477Z,38.90
2018-04-14T16:37:18.019Z,38.90
2018-04-14T16:39:46.298Z,39.40
2018-04-14T16:42:14.590Z,40.20
2018-04-14T16:44:42.135Z,40.20
2018-04-14T16:47:10.419Z,41.00
2018-04-14T16:49:37.997Z,40.90
2018-04-14T16:52:05.507Z,41.00
2018-04-14T16:54:33.036Z,41.20
2018-04-14T16:57:00.533Z,41.30
2018-04-14T16:59:28.815Z,40.90
2018-04-14T17:01:57.088Z,41.40
2018-04-14T17:04:25.375Z,41.50
2018-04-14T17:06:53.791Z,41.90
2018-04-14T17:09:21.321Z,41.80
2018-04-14T17:11:48.830Z,42.10
2018-04-14T17:14:16.371Z,42.00
2018-04-14T17:16:43.877Z,42.10
2018-04-14T17:19:12.238Z,42.40
2018-04-14T17:21:39.798Z,42.40
2018-04-14T17:24:08.091Z,43.00
2018-04-14T17:26:36.415Z,42.60
2018-04-14T17:29:03.915Z,42.60
2018-04-14T17:31:32.204Z,42.70
2018-04-14T17:33:59.743Z,42.70
2018-04-14T17:36:28.051Z,42.80
2018-04-14T17:38:55.538Z,42.80
2018-04-14T17:41:23.119Z,43.50
2018-04-14T17:43:50.599Z,43.20
2018-04-14T17:46:18.928Z,42.90
2018-04-14T17:48:46.438Z,42.90
2018-04-14T17:51:13.967Z,43.10
2018-04-14T17:53:42.280Z,43.40
2018-04-14T17:56:10.588Z,43.70
2018-04-14T17:58:38.088Z,43.60
2018-04-14T18:01:06.415Z,43.40
2018-04-14T18:03:33.969Z,43.30
2018-04-14T18:06:01.466Z,43.40
2018-04-14T18:08:29.755Z,44.40
2018-04-14T18:10:57.261Z,43.90
2018-04-14T18:13:24.786Z,44.20
2018-04-14T18:15:53.064Z,44.80
2018-04-14T18:18:21.395Z,45.30
2018-04-14T18:20:48.920Z,45.30
2018-04-14T18:23:16.469Z,45.60
2018-04-14T18:25:44.025Z,45.90
2018-04-14T18:28:11.569Z,46.30
2018-04-14T18:30:39.855Z,47.20
2018-04-14T18:33:08.176Z,47.70
2018-04-14T18:35:36.602Z,47.70
2018-04-14T18:38:04.883Z,48.10
2018-04-14T18:40:32.430Z,48.10
2018-04-14T18:43:00.718Z,48.90
2018-04-14T18:45:28.256Z,48.90
2018-04-14T18:47:56.580Z,49.40
2018-04-14T18:50:24.138Z,49.40
2018-04-14T18:52:51.639Z,49.60
2018-04-14T18:55:19.214Z,50.00
2018-04-14T18:57:47.472Z,50.60
2018-04-14T19:00:15.022Z,50.50
2018-04-14T19:02:42.529Z,50.80
2018-04-14T19:05:10.076Z,51.00
2018-04-14T19:07:37.588Z,51.70
2018-04-14T19:10:05.115Z,51.70
2018-04-14T19:12:32.647Z,51.30
2018-04-14T19:15:00.923Z,51.40
2018-04-14T19:17:28.453Z,51.40
2018-04-14T19:19:56.063Z,51.70
2018-04-14T19:22:23.589Z,51.80
2018-04-14T19:24:51.866Z,52.10
2018-04-14T19:27:20.170Z,52.30
2018-04-14T19:29:47.700Z,52.30
2018-04-14T19:32:16.029Z,52.50
2018-04-14T19:34:43.554Z,52.50
2018-04-14T19:37:11.109Z,53.10
2018-04-14T19:39:38.622Z,52.90
2018-04-14T19:42:06.159Z,53.00
2018-04-14T19:44:33.690Z,53.50
2018-04-14T19:47:01.218Z,54.00
2018-04-14T19:49:29.532Z,54.10
2018-04-14T19:51:57.048Z,54.00
2018-04-14T19:54:25.381Z,54.70
2018-04-14T19:56:52.902Z,54.00
2018-04-14T19:59:20.460Z,54.20
2018-04-14T20:01:48.746Z,55.10
2018-04-14T20:04:16.293Z,55.10
2018-04-14T20:06:44.579Z,55.30
2018-04-14T20:09:12.180Z,55.30
2018-04-14T20:11:39.686Z,55.20
2018-04-14T20:14:07.219Z,55.30
2018-04-14T20:16:35.511Z,55.70
2018-04-14T20:19:03.779Z,55.40
2018-04-14T20:21:32.059Z,55.60
2018-04-14T20:24:00.347Z,55.70
2018-04-14T20:26:28.675Z,55.60
2018-04-14T20:28:56.219Z,55.60
2018-04-14T20:31:23.759Z,55.60
2018-04-14T20:33:51.275Z,55.60
2018-04-14T20:36:18.806Z,56.10
2018-04-14T20:38:46.352Z,56.10
2018-04-14T20:41:13.878Z,56.40
2018-04-14T20:43:41.393Z,56.60
2018-04-14T20:46:09.687Z,56.80
2018-04-14T20:48:37.967Z,56.90
2018-04-14T20:51:05.503Z,56.80
2018-04-14T20:53:33.023Z,57.00
2018-04-14T20:56:00.559Z,57.10
2018-04-14T20:58:28.100Z,57.00
2018-04-14T21:00:56.424Z,57.40
2018-04-14T21:03:23.953Z,57.30
2018-04-14T21:05:51.481Z,57.80
2018-04-14T21:08:19.025Z,58.40
2018-04-14T21:10:46.526Z,58.30
2018-04-14T21:13:14.065Z,58.40
2018-04-14T21:15:41.597Z,58.20
2018-04-14T21:18:09.884Z,58.10
2018-04-14T21:20:37.389Z,58.10
2018-04-14T21:23:04.946Z,59.20
2018-04-14T21:25:32.446Z,58.40
2018-04-14T21:28:00.091Z,58.40
2018-04-14T21:30:27.632Z,58.50
2018-04-14T21:32:55.137Z,58.50
2018-04-14T21:35:22.678Z,58.60
2018-04-14T21:37:50.231Z,58.70
2018-04-14T21:40:17.743Z,58.60
2018-04-14T21:42:45.295Z,58.90
2018-04-14T21:45:12.872Z,58.90
2018-04-14T21:47:40.378Z,58.80
2018-04-14T21:50:07.974Z,58.90
2018-04-14T21:52:35.494Z,59.10
2018-04-14T21:55:03.033Z,58.90
2018-04-14T21:57:30.612Z,59.20
2018-04-14T21:59:58.162Z,59.30
2018-04-14T22:02:26.450Z,59.40
2018-04-14T22:04:54.049Z,59.30
2018-04-14T22:07:21.539Z,58.80
2018-04-14T22:09:49.063Z,59.70
2018-04-14T22:12:16.591Z,59.90
2018-04-14T22:14:44.939Z,60.00
2018-04-14T22:17:13.224Z,60.30
2018-04-14T22:19:40.798Z,60.40
2018-04-14T22:22:08.326Z,60.30
2018-04-14T22:24:35.827Z,61.50
2018-04-14T22:27:04.121Z,61.30
2018-04-14T22:29:31.627Z,61.30
2018-04-14T22:31:59.162Z,59.90
2018-04-14T22:34:26.660Z,58.80
2018-04-14T22:36:54.942Z,56.80
2018-04-14T22:39:22.579Z,56.80
2018-04-14T22:41:50.893Z,55.80
2018-04-14T22:44:19.182Z,55.20
2018-04-14T22:46:46.722Z,55.10
2018-04-14T22:49:15.006Z,55.00
2018-04-14T22:51:42.531Z,54.90
2018-04-14T22:54:10.022Z,55.00
2018-04-14T22:56:37.543Z,54.70
2018-04-14T22:59:05.056Z,54.70
2018-04-14T23:01:32.567Z,54.60
2018-04-14T23:04:00.879Z,54.30
2018-04-14T23:06:28.381Z,54.20
2018-04-14T23:08:55.910Z,54.10
2018-04-14T23:11:23.428Z,54.10
2018-04-14T23:13:51.697Z,53.90
2018-04-14T23:16:20.013Z,53.70
2018-04-14T23:18:47.513Z,53.60
2018-04-14T23:21:15.088Z,53.50
2018-04-14T23:23:43.386Z,54.00
2018-04-14T23:26:10.910Z,53.90
2018-04-14T23:28:38.446Z,54.60
2018-04-14T23:31:05.966Z,54.90
2018-04-14T23:33:33.466Z,55.00
2018-04-14T23:36:00.960Z,55.30
2018-04-14T23:38:29.250Z,55.60
2018-04-14T23:40:56.749Z,55.50
2018-04-14T23:43:24.282Z,55.70
2018-04-14T23:45:51.783Z,56.60
2018-04-14T23:48:19.314Z,56.40
2018-04-14T23:50:46.894Z,56.00
2018-04-14T23:53:14.445Z,55.50
2018-04-14T23:55:41.952Z,55.20
2018-04-14T23:58:09.486Z,54.80
